Time;durP1;ratioP1;P1;durP2;ratioP2;P2;SDS_P1;SDS_P2;PMS_P1;PMS_P2;Temp;Humidity;BMP_temperature;BMP_pressure;BME280_temperature;BME280_humidity;BME280_pressure;Samples;Min_cycle;Max_cycle;Signal;HPM_P1;HPM_P2
2021/08/11 00:00:32;;;;;;;2.42;2.00;;;13.00;99.90;;;;;;4984913;28;20652;-66
2021/08/11 00:02:58;;;;;;;2.88;2.60;;;12.90;99.90;;;;;;4984513;28;20234;-68
2021/08/11 00:05:25;;;;;;;2.78;2.28;;;12.80;99.90;;;;;;4983781;28;20512;-67
2021/08/11 00:07:50;;;;;;;3.85;2.90;;;12.90;99.90;;;;;;4984115;28;20199;-67
2021/08/11 00:10:16;;;;;;;2.20;1.90;;;12.80;99.90;;;;;;4984542;28;20279;-66
2021/08/11 00:12:42;;;;;;;7.60;2.22;;;12.90;99.90;;;;;;4984473;28;20316;-67
2021/08/11 00:15:09;;;;;;;2.38;2.17;;;12.90;99.90;;;;;;4983366;28;20692;-69
2021/08/11 00:17:34;;;;;;;2.63;2.17;;;12.90;99.90;;;;;;4985042;28;20231;-65
2021/08/11 00:20:00;;;;;;;1.98;1.77;;;12.90;99.90;;;;;;4987526;28;20188;-66
2021/08/11 00:22:26;;;;;;;4.40;2.33;;;12.80;99.90;;;;;;4988034;28;20295;-66
2021/08/11 00:24:52;;;;;;;2.35;2.15;;;12.80;99.90;;;;;;4986999;28;20184;-65
2021/08/11 00:27:17;;;;;;;2.30;2.10;;;12.70;99.90;;;;;;4987900;28;20655;-66
2021/08/11 00:29:43;;;;;;;3.65;2.00;;;12.70;99.90;;;;;;4987403;28;20257;-68
2021/08/11 00:32:08;;;;;;;2.97;1.83;;;12.70;99.90;;;;;;4988084;28;20215;-65
2021/08/11 00:34:34;;;;;;;3.20;2.45;;;12.60;99.90;;;;;;4986903;28;20267;-69
2021/08/11 00:37:00;;;;;;;2.05;1.80;;;12.60;99.90;;;;;;4987621;28;20204;-70
2021/08/11 00:39:25;;;;;;;2.40;1.75;;;12.60;99.90;;;;;;4987694;28;20269;-67
2021/08/11 00:41:51;;;;;;;2.42;2.13;;;12.60;99.90;;;;;;4987502;28;20203;-68
2021/08/11 00:44:16;;;;;;;2.05;1.85;;;12.60;99.90;;;;;;4986800;28;20247;-66
2021/08/11 00:46:43;;;;;;;3.25;2.20;;;12.50;99.90;;;;;;4987650;28;20556;-65
2021/08/11 00:49:17;;;;;;;2.38;1.95;;;12.50;99.90;;;;;;4987133;28;20710;-66
2021/08/11 00:51:44;;;;;;;2.17;1.92;;;12.50;99.90;;;;;;4987376;28;20235;-68
2021/08/11 00:54:11;;;;;;;3.25;1.90;;;12.50;99.90;;;;;;4986279;28;20659;-65
2021/08/11 00:56:40;;;;;;;3.50;2.08;;;12.40;99.90;;;;;;4987406;28;20629;-66
2021/08/11 00:59:08;;;;;;;2.17;1.98;;;12.40;99.90;;;;;;4986800;28;20189;-66
2021/08/11 01:01:37;;;;;;;4.00;2.42;;;12.30;99.90;;;;;;4986824;28;20188;-66
2021/08/11 01:04:03;;;;;;;2.42;2.08;;;12.20;99.90;;;;;;4986066;28;20196;-65
2021/08/11 01:06:30;;;;;;;2.13;1.70;;;12.30;99.90;;;;;;4987313;28;20757;-66
2021/08/11 01:08:56;;;;;;;3.92;2.10;;;12.20;99.90;;;;;;4985060;28;20642;-66
2021/08/11 01:11:24;;;;;;;3.65;2.10;;;12.20;99.90;;;;;;4985449;28;20286;-70
2021/08/11 01:13:50;;;;;;;1.75;1.50;;;12.20;99.90;;;;;;4984521;28;20181;-66
2021/08/11 01:16:16;;;;;;;3.15;2.40;;;12.20;99.90;;;;;;4986498;28;20227;-67
2021/08/11 01:18:42;;;;;;;2.40;1.85;;;12.20;99.90;;;;;;4986834;28;20180;-67
2021/08/11 01:21:29;;;;;;;2.42;2.13;;;12.20;99.90;;;;;;4986512;28;20298;-66
2021/08/11 01:24:12;;;;;;;2.03;1.73;;;12.10;99.90;;;;;;4985464;28;20821;-66
2021/08/11 01:26:56;;;;;;;2.53;2.10;;;12.10;99.90;;;;;;4986790;28;20618;-65
2021/08/11 01:29:43;;;;;;;1.80;1.60;;;12.10;99.90;;;;;;4985776;28;20255;-67
2021/08/11 01:32:36;;;;;;;2.05;1.75;;;12.00;99.90;;;;;;4986240;28;20286;-67
2021/08/11 01:35:04;;;;;;;2.45;1.77;;;12.00;99.90;;;;;;4984981;28;20243;-66
2021/08/11 01:37:33;;;;;;;2.85;2.25;;;12.00;99.90;;;;;;4986220;28;20204;-67
2021/08/11 01:40:01;;;;;;;3.40;2.10;;;12.00;99.90;;;;;;4985968;28;20206;-66
2021/08/11 01:42:43;;;;;;;2.10;1.90;;;12.00;99.90;;;;;;4986331;28;20184;-65
2021/08/11 01:45:42;;;;;;;3.25;1.90;;;11.90;99.90;;;;;;4985227;28;20259;-65
2021/08/11 01:48:11;;;;;;;1.77;1.50;;;11.80;99.90;;;;;;4973792;28;20204;-64
2021/08/11 01:50:43;;;;;;;3.20;1.88;;;11.70;99.90;;;;;;4985686;28;20192;-65
2021/08/11 01:53:13;;;;;;;2.22;1.60;;;11.80;99.90;;;;;;4985743;28;20278;-65
2021/08/11 01:55:39;;;;;;;3.40;2.10;;;11.80;99.90;;;;;;4985153;28;20335;-65
2021/08/11 01:58:05;;;;;;;1.93;1.80;;;11.70;99.90;;;;;;4986738;28;20949;-67
2021/08/11 02:00:32;;;;;;;2.22;1.92;;;11.70;99.90;;;;;;4985920;28;20194;-67
2021/08/11 02:03:00;;;;;;;2.10;1.90;;;11.60;99.90;;;;;;4985735;28;20194;-67
2021/08/11 02:05:28;;;;;;;2.40;2.10;;;11.50;99.90;;;;;;4984870;28;20192;-66
2021/08/11 02:07:54;;;;;;;2.80;1.95;;;11.50;99.90;;;;;;4986476;28;20190;-65
2021/08/11 02:10:20;;;;;;;18.70;2.70;;;11.60;99.90;;;;;;4985589;28;20188;-65
2021/08/11 02:12:46;;;;;;;2.85;1.85;;;11.60;99.90;;;;;;4986334;28;20299;-65
2021/08/11 02:15:12;;;;;;;2.65;2.35;;;11.50;99.90;;;;;;4985061;28;20239;-66
2021/08/11 02:17:40;;;;;;;3.70;2.03;;;11.50;99.90;;;;;;4985676;28;20287;-66
2021/08/11 02:20:08;;;;;;;2.92;2.17;;;11.50;99.90;;;;;;4985662;28;20252;-65
2021/08/11 02:22:33;;;;;;;1.70;1.60;;;11.40;99.90;;;;;;4985794;28;20187;-65
2021/08/11 02:25:01;;;;;;;2.20;1.70;;;11.50;99.90;;;;;;4984543;28;20199;-66
2021/08/11 02:27:32;;;;;;;2.47;1.87;;;11.60;99.90;;;;;;4985963;28;21015;-68
2021/08/11 02:30:14;;;;;;;1.83;1.67;;;11.40;99.90;;;;;;4985458;28;21282;-68
2021/08/11 02:32:48;;;;;;;4.60;2.20;;;11.40;99.90;;;;;;4985923;28;20211;-65
2021/08/11 02:35:35;;;;;;;2.38;1.80;;;11.40;99.90;;;;;;4984534;28;20235;-65
2021/08/11 02:38:32;;;;;;;3.50;2.05;;;11.40;99.90;;;;;;4985508;28;20192;-65
2021/08/11 02:41:06;;;;;;;2.05;1.75;;;11.40;99.90;;;;;;4983843;28;20608;-66
2021/08/11 02:44:04;;;;;;;2.90;2.30;;;11.30;99.90;;;;;;4985905;28;20215;-67
2021/08/11 02:46:32;;;;;;;2.07;1.67;;;11.30;99.90;;;;;;4985037;28;20690;-65
2021/08/11 02:49:02;;;;;;;3.27;1.90;;;11.30;99.90;;;;;;4985476;28;20726;-65
2021/08/11 02:51:31;;;;;;;2.22;1.70;;;11.40;99.90;;;;;;4985324;28;20207;-65
2021/08/11 02:54:00;;;;;;;2.55;1.90;;;11.30;99.90;;;;;;4984755;28;20238;-66
2021/08/11 02:56:27;;;;;;;2.13;1.88;;;11.40;99.90;;;;;;4985001;28;20339;-68
2021/08/11 02:58:54;;;;;;;2.08;1.83;;;11.30;99.90;;;;;;4985061;28;20195;-67
2021/08/11 03:01:20;;;;;;;3.42;2.45;;;11.20;99.90;;;;;;4984897;28;20644;-65
2021/08/11 03:03:46;;;;;;;3.38;2.13;;;11.20;99.90;;;;;;4984785;28;20335;-65
2021/08/11 03:06:12;;;;;;;2.50;2.03;;;11.20;99.90;;;;;;4984853;28;20679;-65
2021/08/11 03:08:38;;;;;;;2.10;1.90;;;11.20;99.90;;;;;;4985383;28;20176;-66
2021/08/11 03:11:04;;;;;;;3.33;2.17;;;11.20;99.90;;;;;;4984456;28;20191;-69
2021/08/11 03:13:30;;;;;;;2.85;1.48;;;11.30;99.90;;;;;;4985272;28;20188;-66
2021/08/11 03:15:55;;;;;;;2.33;2.00;;;11.20;99.90;;;;;;4983366;28;20711;-65
2021/08/11 03:18:21;;;;;;;4.45;2.08;;;11.20;99.90;;;;;;4985197;28;20629;-64
2021/08/11 03:20:47;;;;;;;2.45;1.50;;;11.20;99.90;;;;;;4984640;28;20550;-65
2021/08/11 03:23:14;;;;;;;4.60;2.22;;;11.10;99.90;;;;;;4984931;28;20197;-68
2021/08/11 03:25:43;;;;;;;1.97;1.60;;;11.00;99.90;;;;;;4983848;28;20211;-66
2021/08/11 03:28:11;;;;;;;2.40;2.03;;;11.10;99.90;;;;;;4984863;28;20203;-65
2021/08/11 03:30:37;;;;;;;3.30;1.70;;;11.00;99.90;;;;;;4984260;28;20191;-65
2021/08/11 03:33:04;;;;;;;2.22;1.80;;;11.00;99.90;;;;;;4983557;28;20672;-66
2021/08/11 03:35:30;;;;;;;2.30;1.90;;;11.00;99.90;;;;;;4983864;28;20192;-65
2021/08/11 03:37:56;;;;;;;2.60;2.03;;;11.10;99.90;;;;;;4984225;28;20195;-65
2021/08/11 03:40:22;;;;;;;2.67;2.17;;;11.10;99.90;;;;;;4983132;28;20193;-65
2021/08/11 03:42:47;;;;;;;3.35;2.65;;;11.10;99.90;;;;;;4983609;28;20188;-66
2021/08/11 03:45:13;;;;;;;4.43;2.15;;;11.20;99.90;;;;;;4982739;28;20192;-67
2021/08/11 03:47:40;;;;;;;2.90;2.15;;;11.10;99.90;;;;;;4983222;28;20212;-67
2021/08/11 03:50:06;;;;;;;2.60;2.33;;;11.10;99.90;;;;;;4983081;28;20875;-68
2021/08/11 03:52:32;;;;;;;2.45;1.80;;;11.10;99.90;;;;;;4987523;28;20938;-66
2021/08/11 03:54:57;;;;;;;2.95;2.08;;;11.00;99.90;;;;;;4987007;28;20826;-66
2021/08/11 03:57:23;;;;;;;4.80;2.20;;;11.00;99.90;;;;;;4988085;28;20205;-66
2021/08/11 03:59:49;;;;;;;3.40;2.27;;;11.00;99.90;;;;;;4987498;28;20274;-67
2021/08/11 04:02:14;;;;;;;4.03;2.17;;;11.10;99.90;;;;;;4988003;28;20191;-66
2021/08/11 04:04:40;;;;;;;3.45;2.33;;;11.10;99.90;;;;;;4986918;28;20906;-66
2021/08/11 04:07:05;;;;;;;4.00;2.50;;;11.10;99.90;;;;;;4987757;28;20200;-68
2021/08/11 04:09:31;;;;;;;3.75;2.47;;;11.10;99.90;;;;;;4987560;28;20196;-69
2021/08/11 04:11:56;;;;;;;2.55;1.92;;;11.10;99.90;;;;;;4987692;28;20219;-69
2021/08/11 04:14:22;;;;;;;3.35;2.38;;;11.20;99.90;;;;;;4986731;28;20184;-66
2021/08/11 04:16:48;;;;;;;2.80;2.00;;;11.10;99.90;;;;;;4987635;28;20357;-66
2021/08/11 04:19:13;;;;;;;3.00;2.00;;;11.10;99.90;;;;;;4986467;28;20242;-68
2021/08/11 04:21:39;;;;;;;2.58;1.92;;;11.20;99.90;;;;;;4987534;28;20199;-68
2021/08/11 04:24:04;;;;;;;3.13;2.45;;;11.20;99.90;;;;;;4986797;28;20210;-67
2021/08/11 04:26:30;;;;;;;5.25;2.63;;;11.20;99.90;;;;;;4987336;28;20207;-68
2021/08/11 04:28:56;;;;;;;3.65;2.15;;;11.20;99.90;;;;;;4987342;28;20298;-67
2021/08/11 04:31:21;;;;;;;3.30;2.38;;;11.10;99.90;;;;;;4987139;28;20199;-68
2021/08/11 04:33:47;;;;;;;2.97;2.22;;;11.20;99.90;;;;;;4987051;28;20184;-68
2021/08/11 04:36:12;;;;;;;2.90;2.13;;;11.20;99.90;;;;;;4986937;28;20378;-66
2021/08/11 04:38:38;;;;;;;2.75;2.28;;;11.20;99.90;;;;;;4987567;28;20181;-68
2021/08/11 04:41:03;;;;;;;2.80;2.03;;;11.30;99.90;;;;;;4986928;28;20197;-70
2021/08/11 04:43:29;;;;;;;2.53;1.73;;;11.20;99.90;;;;;;4987258;28;20611;-67
2021/08/11 04:45:55;;;;;;;2.97;2.22;;;11.20;99.90;;;;;;4986004;28;20478;-68
2021/08/11 04:48:20;;;;;;;2.13;1.88;;;11.50;99.90;;;;;;4987438;28;20644;-66
2021/08/11 04:50:46;;;;;;;3.47;2.10;;;11.40;99.90;;;;;;4986602;28;20192;-67
2021/08/11 04:53:11;;;;;;;1.70;1.60;;;11.60;99.90;;;;;;4985694;28;20220;-70
2021/08/11 04:55:37;;;;;;;2.15;1.55;;;11.60;99.90;;;;;;4985923;28;20208;-66
2021/08/11 04:58:03;;;;;;;1.98;1.48;;;11.70;99.90;;;;;;4987144;28;20211;-66
2021/08/11 05:00:28;;;;;;;2.42;1.80;;;11.80;99.90;;;;;;4986557;28;20535;-68
2021/08/11 05:02:54;;;;;;;1.95;1.70;;;11.90;99.90;;;;;;4986478;28;20197;-68
2021/08/11 05:05:20;;;;;;;3.03;1.83;;;12.00;99.90;;;;;;4986027;28;20201;-69
2021/08/11 05:07:45;;;;;;;2.63;1.77;;;12.10;99.90;;;;;;4986996;28;20714;-68
2021/08/11 05:10:12;;;;;;;3.30;1.60;;;12.70;99.90;;;;;;4986393;28;20672;-68
2021/08/11 05:12:38;;;;;;;2.22;1.10;;;13.80;99.90;;;;;;4986512;28;20671;-69
2021/08/11 05:15:05;;;;;;;1.50;1.40;;;14.70;99.90;;;;;;4985690;28;20294;-68
2021/08/11 05:17:30;;;;;;;1.83;1.60;;;15.80;99.90;;;;;;4986530;28;20295;-68
2021/08/11 05:19:56;;;;;;;1.90;1.52;;;16.40;99.90;;;;;;4986218;28;20263;-68
2021/08/11 05:22:23;;;;;;;2.13;1.52;;;17.00;99.90;;;;;;4986463;28;20195;-66
2021/08/11 05:24:49;;;;;;;2.08;1.50;;;17.80;99.90;;;;;;4985323;28;20444;-68
2021/08/11 05:27:15;;;;;;;3.20;1.42;;;18.10;99.90;;;;;;4986226;28;20243;-66
2021/08/11 05:29:42;;;;;;;1.50;1.30;;;18.40;99.90;;;;;;4986401;28;20226;-66
2021/08/11 05:32:09;;;;;;;3.22;1.92;;;18.80;99.90;;;;;;4986381;28;20370;-70
2021/08/11 05:34:35;;;;;;;1.95;1.75;;;19.00;99.90;;;;;;4985630;28;20180;-68
2021/08/11 05:37:00;;;;;;;2.63;1.75;;;19.20;99.90;;;;;;4985890;28;20215;-68
2021/08/11 05:39:26;;;;;;;1.83;1.25;;;19.50;99.90;;;;;;4985047;28;20554;-68
2021/08/11 05:41:52;;;;;;;2.42;1.70;;;19.70;99.90;;;;;;4985945;28;20203;-68
2021/08/11 05:44:18;;;;;;;2.83;1.75;;;20.00;99.90;;;;;;4985912;28;20180;-69
2021/08/11 05:46:43;;;;;;;1.65;1.30;;;20.20;99.90;;;;;;4986141;28;20341;-69
2021/08/11 05:49:10;;;;;;;1.85;1.60;;;20.30;99.90;;;;;;4986461;28;20196;-68
2021/08/11 05:51:36;;;;;;;2.25;1.70;;;20.60;99.90;;;;;;4986278;28;20215;-67
2021/08/11 05:54:03;;;;;;;1.50;1.40;;;20.90;99.90;;;;;;4985412;28;20192;-69
2021/08/11 05:56:29;;;;;;;1.65;1.55;;;21.10;99.90;;;;;;4986121;28;20211;-69
2021/08/11 05:58:55;;;;;;;2.15;1.90;;;21.30;99.90;;;;;;4986074;28;20234;-69
2021/08/11 06:01:22;;;;;;;2.60;1.92;;;21.40;99.90;;;;;;4986327;28;20188;-68
2021/08/11 06:03:48;;;;;;;3.05;2.20;;;21.50;99.90;;;;;;4985448;28;20187;-68
2021/08/11 06:06:14;;;;;;;2.72;1.90;;;21.70;99.90;;;;;;4985493;28;20200;-69
2021/08/11 06:08:40;;;;;;;5.05;2.55;;;21.90;99.90;;;;;;4986286;28;20233;-66
2021/08/11 06:11:05;;;;;;;3.00;2.20;;;22.20;99.90;;;;;;4985522;28;20184;-68
2021/08/11 06:13:31;;;;;;;4.00;2.30;;;22.20;99.90;;;;;;4985914;28;20753;-67
2021/08/11 06:15:57;;;;;;;3.03;2.50;;;22.30;99.90;;;;;;4983974;28;20208;-67
2021/08/11 06:18:22;;;;;;;3.03;2.40;;;22.40;99.90;;;;;;4984205;28;20211;-68
2021/08/11 06:20:52;;;;;;;4.47;2.53;;;22.40;99.90;;;;;;4983798;28;20192;-69
2021/08/11 06:23:18;;;;;;;3.40;2.40;;;22.50;99.90;;;;;;4985686;28;20207;-68
2021/08/11 06:25:44;;;;;;;9.27;2.55;;;22.80;99.90;;;;;;4984510;28;20295;-69
2021/08/11 06:28:10;;;;;;;4.22;2.50;;;23.10;99.90;;;;;;4985839;28;20239;-67
2021/08/11 06:30:36;;;;;;;2.95;2.65;;;23.20;99.90;;;;;;4985000;28;20626;-71
2021/08/11 06:33:01;;;;;;;3.97;2.70;;;23.40;99.90;;;;;;4985577;28;20262;-68
2021/08/11 06:35:27;;;;;;;3.33;2.58;;;23.40;99.90;;;;;;4977432;28;20212;-68
2021/08/11 06:37:53;;;;;;;3.70;3.00;;;23.40;99.90;;;;;;4982399;28;20259;-68
2021/08/11 06:40:20;;;;;;;3.63;3.10;;;23.20;99.90;;;;;;4984169;28;20610;-67
2021/08/11 06:42:46;;;;;;;2.58;2.35;;;23.00;99.90;;;;;;4984638;28;20188;-67
2021/08/11 06:45:13;;;;;;;4.82;3.00;;;22.40;99.90;;;;;;4984404;28;20196;-66
2021/08/11 06:47:39;;;;;;;5.28;2.85;;;21.90;99.90;;;;;;4983616;28;20575;-66
2021/08/11 06:50:07;;;;;;;3.25;2.67;;;21.40;99.90;;;;;;4984749;28;20188;-68
2021/08/11 06:52:33;;;;;;;3.92;3.22;;;21.10;99.90;;;;;;4983366;28;20817;-66
2021/08/11 06:55:01;;;;;;;4.63;3.60;;;20.80;99.90;;;;;;4982535;28;20554;-70
2021/08/11 06:57:26;;;;;;;3.10;2.78;;;20.40;99.90;;;;;;4984053;28;20208;-67
2021/08/11 06:59:52;;;;;;;3.40;2.78;;;20.30;99.90;;;;;;4983791;28;20546;-69
2021/08/11 07:02:18;;;;;;;4.40;3.33;;;20.10;99.90;;;;;;4984399;28;20191;-68
2021/08/11 07:04:43;;;;;;;4.13;3.28;;;20.00;99.90;;;;;;4984503;28;20254;-69
2021/08/11 07:07:09;;;;;;;4.60;3.60;;;19.90;99.90;;;;;;4984190;28;20212;-68
2021/08/11 07:09:34;;;;;;;4.78;3.60;;;20.00;99.90;;;;;;4984705;28;20270;-68
2021/08/11 07:12:02;;;;;;;4.85;3.50;;;20.00;99.90;;;;;;4984383;28;20225;-66
2021/08/11 07:14:28;;;;;;;7.13;4.18;;;20.10;99.90;;;;;;4984327;28;20303;-66
2021/08/11 07:16:53;;;;;;;5.50;3.95;;;20.20;99.90;;;;;;4983610;28;20279;-66
2021/08/11 07:19:20;;;;;;;6.28;4.22;;;20.30;99.90;;;;;;4984720;28;20188;-67
2021/08/11 07:21:45;;;;;;;4.45;4.03;;;20.30;99.90;;;;;;4984188;28;20184;-67
2021/08/11 07:24:11;;;;;;;5.13;4.15;;;20.30;99.90;;;;;;4983804;28;20211;-68
2021/08/11 07:26:37;;;;;;;5.07;3.97;;;20.30;99.90;;;;;;4984845;28;20207;-67
2021/08/11 07:29:02;;;;;;;5.32;4.03;;;20.40;99.90;;;;;;4989142;28;20640;-68
2021/08/11 07:31:28;;;;;;;6.05;4.25;;;20.50;99.90;;;;;;4988701;28;20188;-66
2021/08/11 07:33:54;;;;;;;5.55;4.45;;;20.60;99.90;;;;;;4987937;28;20186;-67
2021/08/11 07:36:19;;;;;;;6.05;4.47;;;20.60;99.90;;;;;;4987710;28;20278;-67
2021/08/11 07:38:45;;;;;;;5.60;4.28;;;20.60;99.90;;;;;;4988513;28;20579;-67
2021/08/11 07:41:11;;;;;;;5.90;4.22;;;20.70;99.90;;;;;;4986200;28;20854;-68
2021/08/11 07:43:36;;;;;;;6.57;4.57;;;21.00;99.90;;;;;;4988229;28;20192;-67
2021/08/11 07:46:03;;;;;;;5.72;4.32;;;21.20;99.90;;;;;;4983629;28;20972;-68
2021/08/11 07:48:29;;;;;;;6.80;4.75;;;21.20;99.90;;;;;;4986788;28;20192;-68
2021/08/11 07:50:54;;;;;;;7.38;5.32;;;21.40;99.90;;;;;;4989467;28;20196;-67
2021/08/11 07:53:20;;;;;;;7.50;4.63;;;21.40;99.90;;;;;;4988667;28;20227;-66
2021/08/11 07:55:45;;;;;;;5.35;4.68;;;21.60;99.90;;;;;;4987915;28;20207;-68
2021/08/11 07:58:11;;;;;;;7.93;5.70;;;21.70;99.90;;;;;;4986504;28;20269;-67
2021/08/11 08:00:37;;;;;;;6.97;5.28;;;21.80;99.90;;;;;;4986693;28;21082;-65
2021/08/11 08:03:03;;;;;;;6.75;4.43;;;21.90;99.90;;;;;;4987393;28;20188;-66
2021/08/11 08:05:28;;;;;;;5.20;4.32;;;22.00;99.90;;;;;;4987006;28;20666;-66
2021/08/11 08:07:54;;;;;;;5.32;4.35;;;22.10;99.90;;;;;;4988317;28;20192;-66
2021/08/11 08:10:20;;;;;;;6.13;4.93;;;22.10;99.90;;;;;;4987014;28;20554;-66
2021/08/11 08:12:45;;;;;;;5.50;4.38;;;22.20;99.90;;;;;;4986907;28;20214;-67
2021/08/11 08:15:13;;;;;;;7.22;4.55;;;22.40;99.90;;;;;;4987396;28;20290;-67
2021/08/11 08:17:39;;;;;;;5.28;4.25;;;22.70;99.90;;;;;;4987845;28;20205;-66
2021/08/11 08:20:06;;;;;;;7.28;4.38;;;22.90;99.90;;;;;;4986556;28;21252;-66
2021/08/11 08:22:32;;;;;;;5.63;4.18;;;23.00;99.90;;;;;;4987721;28;20188;-67
2021/08/11 08:24:58;;;;;;;6.10;3.95;;;23.40;99.90;;;;;;4987493;28;20192;-66
2021/08/11 08:27:24;;;;;;;6.07;4.18;;;23.60;99.90;;;;;;4987655;28;20223;-67
2021/08/11 08:29:53;;;;;;;6.00;4.50;;;23.70;99.90;;;;;;4986800;28;20567;-67
2021/08/11 08:32:20;;;;;;;6.18;3.92;;;23.50;99.90;;;;;;4987564;28;20231;-66
2021/08/11 08:34:46;;;;;;;8.48;5.18;;;23.20;99.90;;;;;;4987085;28;20195;-66
2021/08/11 08:37:11;;;;;;;6.38;4.70;;;23.30;99.90;;;;;;4986676;28;20210;-68
2021/08/11 08:39:37;;;;;;;7.00;5.30;;;23.40;99.90;;;;;;4987783;28;20695;-67
2021/08/11 08:42:05;;;;;;;6.35;4.47;;;23.10;99.90;;;;;;4985966;28;20558;-67
2021/08/11 08:44:30;;;;;;;8.02;5.35;;;23.30;99.90;;;;;;4987092;28;20192;-66
2021/08/11 08:46:56;;;;;;;6.65;4.93;;;23.40;99.90;;;;;;4986857;28;20223;-67
2021/08/11 08:49:23;;;;;;;8.52;6.03;;;23.50;99.90;;;;;;4986487;28;20189;-67
2021/08/11 08:51:50;;;;;;;7.97;6.80;;;23.40;99.90;;;;;;4986718;28;20251;-66
2021/08/11 08:54:20;;;;;;;7.95;6.47;;;23.20;99.90;;;;;;4986491;28;20180;-67
2021/08/11 08:56:46;;;;;;;11.82;7.25;;;22.90;99.90;;;;;;4986894;28;20200;-68
2021/08/11 08:59:12;;;;;;;9.18;6.78;;;22.60;99.90;;;;;;4987592;28;20648;-66
2021/08/11 09:01:37;;;;;;;8.23;6.20;;;22.30;99.90;;;;;;4986916;28;20195;-65
2021/08/11 09:04:03;;;;;;;11.98;6.05;;;21.90;99.90;;;;;;4986954;28;20953;-66
2021/08/11 09:06:33;;;;;;;9.50;5.93;;;21.60;99.90;;;;;;4985658;28;20232;-68
2021/08/11 09:09:04;;;;;;;6.97;5.18;;;21.40;99.90;;;;;;4987054;28;20191;-67
2021/08/11 09:11:31;;;;;;;7.28;6.15;;;21.30;99.90;;;;;;4986837;28;20184;-68
2021/08/11 09:14:17;;;;;;;7.45;5.63;;;21.30;99.90;;;;;;4986551;28;20238;-66
2021/08/11 09:16:59;;;;;;;12.05;6.90;;;21.60;99.90;;;;;;4986746;28;20274;-66
2021/08/11 09:19:35;;;;;;;7.95;6.18;;;21.90;99.90;;;;;;4987249;28;21259;-67
2021/08/11 09:22:16;;;;;;;7.70;5.65;;;21.90;99.90;;;;;;4986703;28;20730;-66
2021/08/11 09:24:43;;;;;;;8.57;5.63;;;22.00;99.90;;;;;;4986307;28;20704;-65
2021/08/11 09:27:23;;;;;;;6.80;5.93;;;21.90;99.90;;;;;;4986620;28;20230;-66
2021/08/11 09:30:03;;;;;;;6.10;5.15;;;22.10;99.90;;;;;;4987129;28;20188;-65
2021/08/11 09:32:28;;;;;;;7.90;5.95;;;22.60;99.90;;;;;;4986704;28;20219;-65
2021/08/11 09:34:56;;;;;;;8.05;6.13;;;22.90;99.90;;;;;;4985867;28;20184;-64
2021/08/11 09:37:42;;;;;;;8.50;6.35;;;22.60;99.90;;;;;;4986280;28;20594;-66
2021/08/11 09:40:21;;;;;;;9.02;6.20;;;22.40;99.90;;;;;;4986663;28;20188;-65
2021/08/11 09:42:48;;;;;;;7.47;6.22;;;22.50;99.90;;;;;;4986600;28;20188;-65
2021/08/11 09:45:15;;;;;;;6.88;5.22;;;22.60;99.90;;;;;;4985890;28;20176;-64
2021/08/11 09:47:54;;;;;;;8.02;5.35;;;22.90;99.90;;;;;;4986142;28;20254;-65
2021/08/11 09:50:35;;;;;;;5.93;4.90;;;23.40;99.90;;;;;;4986344;28;20230;-65
2021/08/11 09:53:02;;;;;;;7.60;4.85;;;23.70;99.90;;;;;;4986137;28;20682;-67
2021/08/11 09:55:28;;;;;;;7.47;4.63;;;24.10;99.90;;;;;;4985738;28;20185;-66
2021/08/11 09:57:53;;;;;;;4.95;3.63;;;24.20;99.90;;;;;;4986264;28;20185;-66
2021/08/11 10:00:19;;;;;;;4.53;4.07;;;24.00;99.90;;;;;;4986334;28;20196;-66
2021/08/11 10:02:45;;;;;;;5.57;4.60;;;23.90;99.90;;;;;;4986003;28;20183;-67
2021/08/11 10:05:33;;;;;;;4.47;3.67;;;23.70;99.90;;;;;;4985109;28;20303;-67
2021/08/11 10:07:59;;;;;;;5.13;3.85;;;23.50;99.90;;;;;;4985848;28;20199;-67
2021/08/11 10:10:25;;;;;;;4.53;3.53;;;22.60;99.90;;;;;;4986015;28;20651;-67
2021/08/11 10:12:52;;;;;;;4.53;3.90;;;22.00;99.90;;;;;;4985413;28;20208;-69
2021/08/11 10:15:19;;;;;;;6.50;4.25;;;21.80;99.90;;;;;;4985113;28;20182;-67
2021/08/11 10:17:45;;;;;;;4.85;4.35;;;21.90;99.90;;;;;;4984499;28;20263;-68
2021/08/11 10:20:12;;;;;;;3.78;3.35;;;22.10;99.90;;;;;;4985793;28;21518;-66
2021/08/11 10:22:39;;;;;;;5.40;3.35;;;22.40;99.90;;;;;;4986127;28;20184;-68
2021/08/11 10:25:06;;;;;;;3.92;3.42;;;22.90;99.90;;;;;;4984670;28;20195;-68
2021/08/11 10:27:32;;;;;;;4.45;3.50;;;23.40;99.90;;;;;;4985320;28;20220;-68
2021/08/11 10:29:58;;;;;;;3.58;3.15;;;23.50;99.90;;;;;;4985832;28;20195;-65
2021/08/11 10:32:24;;;;;;;4.20;3.13;;;23.30;99.90;;;;;;4985167;28;20474;-70
2021/08/11 10:34:54;;;;;;;4.38;2.90;;;23.10;99.90;;;;;;4984213;28;20194;-65
2021/08/11 10:37:22;;;;;;;3.28;2.50;;;23.00;99.90;;;;;;4985603;28;20219;-68
2021/08/11 10:39:49;;;;;;;4.70;3.47;;;23.20;99.90;;;;;;4985784;28;20725;-68
2021/08/11 10:42:15;;;;;;;3.38;3.08;;;23.40;99.90;;;;;;4985043;28;20235;-67
2021/08/11 10:44:42;;;;;;;4.80;3.20;;;23.40;99.90;;;;;;4984757;28;20636;-66
2021/08/11 10:47:10;;;;;;;5.40;3.35;;;23.40;99.90;;;;;;4984160;28;20227;-68
2021/08/11 10:49:57;;;;;;;3.75;3.03;;;23.50;99.90;;;;;;4983302;28;20191;-67
2021/08/11 10:52:24;;;;;;;3.92;3.25;;;23.20;99.90;;;;;;4982898;28;20242;-68
2021/08/11 10:55:03;;;;;;;4.25;3.15;;;23.10;99.90;;;;;;4982497;28;20217;-65
2021/08/11 10:57:38;;;;;;;2.90;2.45;;;23.40;99.90;;;;;;4983379;28;20694;-68
2021/08/11 11:00:08;;;;;;;3.25;2.58;;;23.80;99.90;;;;;;4982700;28;20184;-67
2021/08/11 11:02:40;;;;;;;5.47;3.03;;;24.10;99.90;;;;;;4984104;28;20610;-65
2021/08/11 11:05:08;;;;;;;5.43;3.05;;;24.20;99.90;;;;;;4984556;28;20188;-67
2021/08/11 11:07:34;;;;;;;5.30;3.20;;;24.20;99.90;;;;;;4984419;28;20196;-66
2021/08/11 11:10:26;;;;;;;3.72;3.08;;;24.30;99.90;;;;;;4985324;28;20187;-67
2021/08/11 11:12:52;;;;;;;3.58;2.78;;;24.60;99.90;;;;;;4977678;28;20684;-67
2021/08/11 11:15:40;;;;;;;2.83;2.53;;;24.70;99.90;;;;;;4983697;28;20265;-66
2021/08/11 11:18:20;;;;;;;4.93;3.00;;;25.00;99.90;;;;;;4982974;28;20180;-67
2021/08/11 11:21:11;;;;;;;4.63;3.40;;;25.20;99.90;;;;;;4984745;28;20241;-69
2021/08/11 11:23:42;;;;;;;3.15;2.85;;;25.30;99.90;;;;;;4984278;28;20188;-66
2021/08/11 11:26:10;;;;;;;4.03;2.75;;;25.40;99.90;;;;;;4982412;28;20262;-67
2021/08/11 11:29:02;;;;;;;3.33;2.53;;;25.50;99.90;;;;;;4984653;28;20204;-68
2021/08/11 11:31:36;;;;;;;3.63;3.10;;;25.70;99.90;;;;;;4983764;28;20662;-67
2021/08/11 11:34:23;;;;;;;4.20;3.00;;;25.90;99.90;;;;;;4983405;28;20667;-69
2021/08/11 11:36:54;;;;;;;3.47;3.05;;;26.00;99.90;;;;;;4983862;28;20509;-68
2021/08/11 11:39:21;;;;;;;2.83;2.33;;;26.10;99.90;;;;;;4983293;28;20319;-66
2021/08/11 11:42:08;;;;;;;1.90;1.80;;;26.20;99.90;;;;;;4984126;28;20192;-68
2021/08/11 11:44:44;;;;;;;3.15;1.95;;;26.10;99.90;;;;;;4983232;28;20196;-67
2021/08/11 11:47:10;;;;;;;2.83;2.33;;;25.70;99.90;;;;;;4984282;28;20204;-67
2021/08/11 11:49:37;;;;;;;3.55;2.40;;;25.60;99.90;;;;;;4984386;28;20203;-67
2021/08/11 11:52:04;;;;;;;2.65;2.28;;;25.60;99.90;;;;;;4982954;28;20212;-69
2021/08/11 11:54:32;;;;;;;3.67;2.25;;;25.60;99.90;;;;;;4983715;28;20600;-68
2021/08/11 11:56:58;;;;;;;2.28;1.77;;;25.50;99.90;;;;;;4983789;28;20228;-69
2021/08/11 11:59:24;;;;;;;3.28;2.00;;;25.40;99.90;;;;;;4984230;28;20223;-67
2021/08/11 12:01:51;;;;;;;2.67;2.28;;;25.10;99.90;;;;;;4984187;28;20286;-68
2021/08/11 12:04:26;;;;;;;1.95;1.83;;;25.30;99.90;;;;;;4983390;28;20643;-68
2021/08/11 12:06:51;;;;;;;2.92;2.50;;;25.40;99.90;;;;;;4983823;28;20218;-68
2021/08/11 12:09:17;;;;;;;4.40;2.20;;;25.20;99.90;;;;;;4984039;28;20195;-68
2021/08/11 12:11:43;;;;;;;2.50;1.85;;;25.30;99.90;;;;;;4984830;28;20192;-68
2021/08/11 12:14:09;;;;;;;2.92;2.08;;;25.20;99.90;;;;;;4986652;28;20185;-67
2021/08/11 12:16:39;;;;;;;3.05;2.28;;;25.20;99.90;;;;;;4987304;28;20208;-67
2021/08/11 12:19:14;;;;;;;2.13;1.80;;;25.00;99.90;;;;;;4984501;28;20682;-68
2021/08/11 12:21:41;;;;;;;2.28;1.85;;;24.80;99.90;;;;;;4986014;28;20186;-66
2021/08/11 12:24:07;;;;;;;2.75;2.28;;;24.60;99.90;;;;;;4986359;28;20188;-68
2021/08/11 12:26:33;;;;;;;2.90;2.08;;;24.30;99.90;;;;;;4987418;28;20274;-68
2021/08/11 12:28:59;;;;;;;2.10;1.90;;;24.20;99.90;;;;;;4985647;28;20191;-66
2021/08/11 12:31:33;;;;;;;2.40;1.90;;;24.20;99.90;;;;;;4987598;28;20190;-69
2021/08/11 12:34:01;;;;;;;2.35;1.77;;;24.10;99.90;;;;;;4986556;28;20196;-68
2021/08/11 12:36:31;;;;;;;1.98;1.48;;;24.00;99.90;;;;;;4986888;28;20200;-68
2021/08/11 12:39:00;;;;;;;2.00;1.80;;;24.00;99.90;;;;;;4987209;28;20185;-70
2021/08/11 12:41:27;;;;;;;2.40;1.65;;;24.00;99.90;;;;;;4988040;28;20196;-68
2021/08/11 12:43:56;;;;;;;1.90;1.70;;;24.00;99.90;;;;;;4987017;28;20229;-66
2021/08/11 12:46:37;;;;;;;1.30;1.20;;;24.00;99.90;;;;;;4985604;28;20210;-68
2021/08/11 12:49:13;;;;;;;1.70;1.30;;;23.90;99.90;;;;;;4985959;28;20668;-70
2021/08/11 12:51:39;;;;;;;2.33;1.40;;;24.00;99.90;;;;;;4985776;28;20569;-71